Terminal Aerodrome Forecast
Issued by NWS

Home | Current Version | Previous Version | Text Only | Print | Product List | Glossary Off
Versions: 1 2 3 4 5 6 7 8 9 10 11 12 13 14 15 16 17 18 19 20 21 22 23

000
FTUS43 KBIS 101131
TAFJMS
TAF
KJMS 101131Z 1012/1112 31007KT P6SM FEW050 SCT120
     FM102200 28007KT P6SM BKN130
     FM110300 25009KT P6SM BKN080
     FM110600 29013KT P6SM SCT060
     FM110900 31020G30KT P6SM VCSH OVC020=

USA.gov is the U.S. government's official web portal to all federal, state and local government web resources and services.